createdAt,value
2018-12-06T05:42:48.486Z,45.30
2018-12-06T05:45:16.711Z,44.58
2018-12-06T05:47:44.843Z,45.46
2018-12-06T05:50:14.258Z,44.92
2018-12-06T05:52:53.171Z,44.18
2018-12-06T05:55:21.607Z,44.85
2018-12-06T05:57:50.050Z,44.18
2018-12-06T06:00:30.123Z,44.88
2018-12-06T06:02:58.532Z,43.46
2018-12-06T06:05:26.383Z,43.27
2018-12-06T06:07:54.673Z,42.65
2018-12-06T06:10:23.698Z,42.91
2018-12-06T06:12:51.886Z,42.55
2018-12-06T06:15:20.160Z,43.13
2018-12-06T06:17:48.617Z,42.49
2018-12-06T06:20:17.495Z,43.42
2018-12-06T06:22:45.776Z,42.18
2018-12-06T06:25:13.976Z,39.19
2018-12-06T06:27:42.703Z,40.13
2018-12-06T06:30:11.057Z,40.44
2018-12-06T06:32:39.503Z,39.16
2018-12-06T16:37:11.586Z,30.80
2018-12-06T16:39:40.079Z,30.81
2018-12-06T16:42:08.312Z,31.46
2018-12-06T16:44:36.947Z,30.80
2018-12-06T16:47:05.699Z,32.03
2018-12-06T16:49:34.090Z,32.41
2018-12-06T16:52:02.852Z,32.93
2018-12-06T16:54:31.236Z,32.96
2018-12-06T16:57:00.900Z,33.94
2018-12-06T16:59:29.162Z,33.64
2018-12-06T17:01:57.566Z,33.63
2018-12-06T17:04:25.969Z,35.13
2018-12-06T17:06:54.306Z,34.87
2018-12-06T17:09:22.818Z,35.71
2018-12-06T17:11:51.389Z,35.71
2018-12-06T17:14:19.657Z,34.31
2018-12-06T17:16:47.864Z,35.14
2018-12-06T17:19:16.587Z,34.34
2018-12-06T17:21:45.485Z,33.94
2018-12-06T17:24:13.910Z,34.61
2018-12-06T17:26:42.589Z,33.91
2018-12-06T17:29:10.990Z,34.25
2018-12-06T17:31:39.549Z,33.91
2018-12-06T17:34:07.852Z,32.90
2018-12-06T17:36:36.453Z,33.80
2018-12-06T17:39:06.555Z,33.68
2018-12-06T17:41:34.665Z,33.64
2018-12-06T17:44:03.273Z,32.90
2018-12-06T17:46:32.605Z,33.22
2018-12-06T17:49:00.725Z,33.26
2018-12-06T17:51:30.297Z,33.06
2018-12-06T17:53:58.624Z,33.84
2018-12-06T17:56:26.729Z,33.61
2018-12-06T17:58:55.030Z,33.27
2018-12-06T18:01:23.536Z,33.86
2018-12-06T18:03:51.882Z,33.38
2018-12-06T18:06:20.466Z,33.45
2018-12-06T18:08:48.809Z,34.32
2018-12-06T18:11:17.589Z,33.14
2018-12-06T18:13:46.453Z,33.00
2018-12-06T18:16:19.500Z,33.68
2018-12-06T18:18:43.468Z,34.31
2018-12-06T18:21:11.972Z,34.31
2018-12-06T18:23:40.418Z,32.60
2018-12-06T18:26:08.837Z,33.72
2018-12-06T18:28:37.393Z,33.15
2018-12-06T18:31:05.721Z,33.23
2018-12-06T18:33:44.978Z,33.63
2018-12-06T18:36:13.543Z,34.58
2018-12-06T18:38:41.888Z,35.13
2018-12-06T18:41:09.889Z,35.24
2018-12-06T18:43:38.278Z,33.19
2018-12-06T18:46:06.755Z,33.61
2018-12-06T18:48:35.422Z,33.54
2018-12-06T18:51:04.017Z,33.29
2018-12-06T18:53:32.861Z,33.47
2018-12-06T18:56:01.555Z,32.39
2018-12-06T18:58:34.326Z,32.54
2018-12-06T19:00:58.747Z,33.06
2018-12-06T19:03:27.280Z,33.60
2018-12-06T19:05:56.012Z,35.09
2018-12-06T19:08:24.661Z,35.53
2018-12-06T19:10:53.152Z,36.08
2018-12-06T19:13:21.724Z,35.78
2018-12-06T19:15:50.298Z,34.79
2018-12-06T19:18:19.149Z,34.77
2018-12-06T19:20:48.103Z,36.33
2018-12-06T19:23:17.581Z,36.61
2018-12-06T19:25:46.270Z,36.86
2018-12-06T19:28:14.576Z,36.70
2018-12-06T19:30:42.994Z,36.38
2018-12-06T19:33:11.296Z,37.50
2018-12-06T19:35:39.824Z,35.96
2018-12-06T19:38:08.413Z,37.11
2018-12-06T19:40:36.998Z,36.80
2018-12-06T19:43:05.790Z,37.09
2018-12-06T19:45:34.221Z,35.61
2018-12-06T19:48:02.750Z,35.81
2018-12-06T19:50:31.151Z,35.38
2018-12-06T19:52:59.541Z,36.37
2018-12-06T19:55:28.147Z,35.09
2018-12-06T19:57:56.738Z,35.71
2018-12-06T20:00:25.285Z,36.17
2018-12-06T20:02:53.848Z,35.72
2018-12-06T20:05:22.579Z,36.01
2018-12-06T20:08:06.989Z,35.82
2018-12-06T20:10:46.395Z,36.73
2018-12-06T20:13:14.738Z,37.91
2018-12-06T20:15:43.055Z,38.97
2018-12-06T20:18:11.734Z,39.78
2018-12-06T20:20:40.219Z,40.61
2018-12-06T20:23:08.826Z,41.60
2018-12-06T20:25:37.981Z,40.91
2018-12-06T20:28:06.431Z,40.44
2018-12-06T20:30:34.781Z,40.15
2018-12-06T20:33:03.794Z,40.03
